sensor_id;sensor_type;location;lat;lon;timestamp;temperature;humidity
57664;DHT22;43493;53.098;6.064;2023-08-06T00:00:21;14.20;99.90
57664;DHT22;43493;53.098;6.064;2023-08-06T00:02:48;14.20;99.90
57664;DHT22;43493;53.098;6.064;2023-08-06T00:05:14;14.30;99.90
57664;DHT22;43493;53.098;6.064;2023-08-06T00:07:49;14.20;99.90
57664;DHT22;43493;53.098;6.064;2023-08-06T00:10:16;14.20;99.90
57664;DHT22;43493;53.098;6.064;2023-08-06T00:12:42;14.20;99.90
57664;DHT22;43493;53.098;6.064;2023-08-06T00:15:08;14.30;99.90
57664;DHT22;43493;53.098;6.064;2023-08-06T00:17:34;14.30;99.90
57664;DHT22;43493;53.098;6.064;2023-08-06T00:20:01;14.30;99.90
57664;DHT22;43493;53.098;6.064;2023-08-06T00:22:37;14.30;99.90
57664;DHT22;43493;53.098;6.064;2023-08-06T00:25:04;14.20;99.90
57664;DHT22;43493;53.098;6.064;2023-08-06T00:27:30;14.30;99.90
57664;DHT22;43493;53.098;6.064;2023-08-06T00:29:56;14.30;99.90
57664;DHT22;43493;53.098;6.064;2023-08-06T00:32:22;14.30;99.90
57664;DHT22;43493;53.098;6.064;2023-08-06T00:34:48;14.30;99.90
57664;DHT22;43493;53.098;6.064;2023-08-06T00:37:18;14.20;99.90
57664;DHT22;43493;53.098;6.064;2023-08-06T00:39:44;14.20;99.90
57664;DHT22;43493;53.098;6.064;2023-08-06T00:42:12;14.20;99.90
57664;DHT22;43493;53.098;6.064;2023-08-06T00:44:38;14.20;99.90
57664;DHT22;43493;53.098;6.064;2023-08-06T00:47:06;14.20;99.90
57664;DHT22;43493;53.098;6.064;2023-08-06T00:49:33;14.20;99.90
57664;DHT22;43493;53.098;6.064;2023-08-06T00:51:59;14.20;99.90
57664;DHT22;43493;53.098;6.064;2023-08-06T00:54:25;14.20;99.90
57664;DHT22;43493;53.098;6.064;2023-08-06T00:56:53;14.20;99.90
57664;DHT22;43493;53.098;6.064;2023-08-06T00:59:19;14.20;99.90
57664;DHT22;43493;53.098;6.064;2023-08-06T01:01:45;14.20;99.90
57664;DHT22;43493;53.098;6.064;2023-08-06T01:04:12;14.30;99.90
57664;DHT22;43493;53.098;6.064;2023-08-06T01:09:35;14.20;99.90
57664;DHT22;43493;53.098;6.064;2023-08-06T01:12:18;14.20;99.90
57664;DHT22;43493;53.098;6.064;2023-08-06T01:15:07;14.20;99.90
57664;DHT22;43493;53.098;6.064;2023-08-06T01:17:35;14.20;99.90
57664;DHT22;43493;53.098;6.064;2023-08-06T01:20:01;14.20;99.90
57664;DHT22;43493;53.098;6.064;2023-08-06T01:22:27;14.20;99.90
57664;DHT22;43493;53.098;6.064;2023-08-06T01:24:53;14.20;99.90
57664;DHT22;43493;53.098;6.064;2023-08-06T01:27:30;14.20;99.90
57664;DHT22;43493;53.098;6.064;2023-08-06T01:30:12;14.20;99.90
57664;DHT22;43493;53.098;6.064;2023-08-06T01:32:43;14.20;99.90
57664;DHT22;43493;53.098;6.064;2023-08-06T01:35:11;14.20;99.90
57664;DHT22;43493;53.098;6.064;2023-08-06T01:37:37;14.20;99.90
57664;DHT22;43493;53.098;6.064;2023-08-06T01:40:11;14.20;99.90
57664;DHT22;43493;53.098;6.064;2023-08-06T01:42:40;14.20;99.90
57664;DHT22;43493;53.098;6.064;2023-08-06T01:45:09;14.20;99.90
57664;DHT22;43493;53.098;6.064;2023-08-06T01:47:35;14.20;99.90
57664;DHT22;43493;53.098;6.064;2023-08-06T01:50:01;14.20;99.90
57664;DHT22;43493;53.098;6.064;2023-08-06T01:52:27;14.20;99.90
57664;DHT22;43493;53.098;6.064;2023-08-06T01:54:53;14.20;99.90
57664;DHT22;43493;53.098;6.064;2023-08-06T01:57:19;14.20;99.90
57664;DHT22;43493;53.098;6.064;2023-08-06T01:59:45;14.20;99.90
57664;DHT22;43493;53.098;6.064;2023-08-06T02:02:10;14.20;99.90
57664;DHT22;43493;53.098;6.064;2023-08-06T02:04:36;14.20;99.90
57664;DHT22;43493;53.098;6.064;2023-08-06T02:07:02;14.20;99.90
57664;DHT22;43493;53.098;6.064;2023-08-06T02:09:28;14.20;99.90
57664;DHT22;43493;53.098;6.064;2023-08-06T02:11:53;14.20;99.90
57664;DHT22;43493;53.098;6.064;2023-08-06T02:14:19;14.20;99.90
57664;DHT22;43493;53.098;6.064;2023-08-06T02:16:44;14.20;99.90
57664;DHT22;43493;53.098;6.064;2023-08-06T02:19:10;14.20;99.90
57664;DHT22;43493;53.098;6.064;2023-08-06T02:21:36;14.20;99.90
57664;DHT22;43493;53.098;6.064;2023-08-06T02:24:02;14.20;99.90
57664;DHT22;43493;53.098;6.064;2023-08-06T02:26:28;14.20;99.90
57664;DHT22;43493;53.098;6.064;2023-08-06T02:28:53;14.10;99.90
57664;DHT22;43493;53.098;6.064;2023-08-06T02:31:19;14.10;99.90
57664;DHT22;43493;53.098;6.064;2023-08-06T02:33:45;14.10;99.90
57664;DHT22;43493;53.098;6.064;2023-08-06T02:36:10;14.10;99.90
57664;DHT22;43493;53.098;6.064;2023-08-06T02:38:36;14.10;99.90
57664;DHT22;43493;53.098;6.064;2023-08-06T02:41:03;14.10;99.90
57664;DHT22;43493;53.098;6.064;2023-08-06T02:43:29;14.10;99.90
57664;DHT22;43493;53.098;6.064;2023-08-06T02:46:01;14.10;99.90
57664;DHT22;43493;53.098;6.064;2023-08-06T02:48:27;14.10;99.90
57664;DHT22;43493;53.098;6.064;2023-08-06T02:50:53;14.00;99.90
57664;DHT22;43493;53.098;6.064;2023-08-06T02:53:18;14.00;99.90
57664;DHT22;43493;53.098;6.064;2023-08-06T02:55:48;14.00;99.90
57664;DHT22;43493;53.098;6.064;2023-08-06T02:58:14;14.00;99.90
57664;DHT22;43493;53.098;6.064;2023-08-06T03:00:40;14.00;99.90
57664;DHT22;43493;53.098;6.064;2023-08-06T03:03:06;14.00;99.90
57664;DHT22;43493;53.098;6.064;2023-08-06T03:05:32;14.00;99.90
57664;DHT22;43493;53.098;6.064;2023-08-06T03:07:57;14.00;99.90
57664;DHT22;43493;53.098;6.064;2023-08-06T03:10:23;14.00;99.90
57664;DHT22;43493;53.098;6.064;2023-08-06T03:12:49;14.00;99.90
57664;DHT22;43493;53.098;6.064;2023-08-06T03:15:15;14.00;99.90
57664;DHT22;43493;53.098;6.064;2023-08-06T03:17:40;14.00;99.90
57664;DHT22;43493;53.098;6.064;2023-08-06T03:20:06;14.00;99.90
57664;DHT22;43493;53.098;6.064;2023-08-06T03:22:32;14.00;99.90
57664;DHT22;43493;53.098;6.064;2023-08-06T03:24:58;14.00;99.90
57664;DHT22;43493;53.098;6.064;2023-08-06T03:27:24;14.00;99.90
57664;DHT22;43493;53.098;6.064;2023-08-06T03:29:50;14.00;99.90
57664;DHT22;43493;53.098;6.064;2023-08-06T03:32:16;14.00;99.90
57664;DHT22;43493;53.098;6.064;2023-08-06T03:34:42;14.00;99.90
57664;DHT22;43493;53.098;6.064;2023-08-06T03:37:07;14.00;99.90
57664;DHT22;43493;53.098;6.064;2023-08-06T03:39:33;14.00;99.90
57664;DHT22;43493;53.098;6.064;2023-08-06T03:41:59;14.00;99.90
57664;DHT22;43493;53.098;6.064;2023-08-06T03:44:24;14.00;99.90
57664;DHT22;43493;53.098;6.064;2023-08-06T03:46:52;14.00;99.90
57664;DHT22;43493;53.098;6.064;2023-08-06T03:49:18;14.00;99.90
57664;DHT22;43493;53.098;6.064;2023-08-06T03:51:43;14.00;99.90
57664;DHT22;43493;53.098;6.064;2023-08-06T03:54:09;14.10;99.90
57664;DHT22;43493;53.098;6.064;2023-08-06T03:56:35;14.10;99.90
57664;DHT22;43493;53.098;6.064;2023-08-06T03:59:00;14.10;99.90
57664;DHT22;43493;53.098;6.064;2023-08-06T04:01:26;14.10;99.90
57664;DHT22;43493;53.098;6.064;2023-08-06T04:03:52;14.20;99.90
57664;DHT22;43493;53.098;6.064;2023-08-06T04:06:17;14.20;99.90
57664;DHT22;43493;53.098;6.064;2023-08-06T04:08:43;14.20;99.90
57664;DHT22;43493;53.098;6.064;2023-08-06T04:11:09;14.20;99.90
57664;DHT22;43493;53.098;6.064;2023-08-06T04:13:34;14.30;99.90
57664;DHT22;43493;53.098;6.064;2023-08-06T04:16:03;14.20;99.90
57664;DHT22;43493;53.098;6.064;2023-08-06T04:18:29;14.30;99.90
57664;DHT22;43493;53.098;6.064;2023-08-06T04:20:55;14.20;99.90
57664;DHT22;43493;53.098;6.064;2023-08-06T04:23:23;14.20;99.90
57664;DHT22;43493;53.098;6.064;2023-08-06T04:25:49;14.20;99.90
57664;DHT22;43493;53.098;6.064;2023-08-06T04:28:14;14.20;99.90
57664;DHT22;43493;53.098;6.064;2023-08-06T04:30:40;14.20;99.90
57664;DHT22;43493;53.098;6.064;2023-08-06T04:33:06;14.30;99.90
57664;DHT22;43493;53.098;6.064;2023-08-06T04:35:31;14.30;99.90
57664;DHT22;43493;53.098;6.064;2023-08-06T04:37:57;14.30;99.90
57664;DHT22;43493;53.098;6.064;2023-08-06T04:40:23;14.30;99.90
57664;DHT22;43493;53.098;6.064;2023-08-06T04:42:48;14.30;99.90
57664;DHT22;43493;53.098;6.064;2023-08-06T04:45:14;14.30;99.90
57664;DHT22;43493;53.098;6.064;2023-08-06T04:47:40;14.30;99.90
57664;DHT22;43493;53.098;6.064;2023-08-06T04:50:06;14.30;99.90
57664;DHT22;43493;53.098;6.064;2023-08-06T04:52:31;14.30;99.90
57664;DHT22;43493;53.098;6.064;2023-08-06T04:54:57;14.30;99.90
57664;DHT22;43493;53.098;6.064;2023-08-06T04:57:23;14.30;99.90
57664;DHT22;43493;53.098;6.064;2023-08-06T04:59:49;14.30;99.90
57664;DHT22;43493;53.098;6.064;2023-08-06T05:02:15;14.30;99.90
57664;DHT22;43493;53.098;6.064;2023-08-06T05:04:41;14.30;99.90
57664;DHT22;43493;53.098;6.064;2023-08-06T05:07:07;14.40;99.90
57664;DHT22;43493;53.098;6.064;2023-08-06T05:09:32;14.40;99.90
57664;DHT22;43493;53.098;6.064;2023-08-06T05:12:01;14.40;99.90
57664;DHT22;43493;53.098;6.064;2023-08-06T05:14:27;14.40;99.90
57664;DHT22;43493;53.098;6.064;2023-08-06T05:16:53;14.50;99.90
57664;DHT22;43493;53.098;6.064;2023-08-06T05:19:19;14.50;99.90
57664;DHT22;43493;53.098;6.064;2023-08-06T05:21:44;14.50;99.90
57664;DHT22;43493;53.098;6.064;2023-08-06T05:24:10;14.60;99.90
57664;DHT22;43493;53.098;6.064;2023-08-06T05:26:37;14.60;99.90
57664;DHT22;43493;53.098;6.064;2023-08-06T05:29:03;14.70;99.90
57664;DHT22;43493;53.098;6.064;2023-08-06T05:31:29;14.70;99.90
57664;DHT22;43493;53.098;6.064;2023-08-06T05:33:55;14.70;99.90
57664;DHT22;43493;53.098;6.064;2023-08-06T05:36:20;14.80;99.90
57664;DHT22;43493;53.098;6.064;2023-08-06T05:38:47;14.80;99.90
57664;DHT22;43493;53.098;6.064;2023-08-06T05:41:12;14.90;99.90
57664;DHT22;43493;53.098;6.064;2023-08-06T05:43:38;14.90;99.90
57664;DHT22;43493;53.098;6.064;2023-08-06T05:46:04;14.90;99.90
57664;DHT22;43493;53.098;6.064;2023-08-06T05:48:29;14.90;99.90
57664;DHT22;43493;53.098;6.064;2023-08-06T05:50:55;15.00;99.90
57664;DHT22;43493;53.098;6.064;2023-08-06T05:53:21;14.90;99.90
57664;DHT22;43493;53.098;6.064;2023-08-06T05:55:47;14.90;99.90
57664;DHT22;43493;53.098;6.064;2023-08-06T05:58:13;15.00;99.90
57664;DHT22;43493;53.098;6.064;2023-08-06T06:00:39;15.00;99.90
57664;DHT22;43493;53.098;6.064;2023-08-06T06:03:04;15.00;99.90
57664;DHT22;43493;53.098;6.064;2023-08-06T06:05:30;15.00;99.90
57664;DHT22;43493;53.098;6.064;2023-08-06T06:07:56;15.00;99.90
57664;DHT22;43493;53.098;6.064;2023-08-06T06:10:21;15.00;99.90
57664;DHT22;43493;53.098;6.064;2023-08-06T06:12:47;15.10;99.90
57664;DHT22;43493;53.098;6.064;2023-08-06T06:15:13;15.00;99.90
57664;DHT22;43493;53.098;6.064;2023-08-06T06:17:38;15.00;99.90
57664;DHT22;43493;53.098;6.064;2023-08-06T06:20:05;15.10;99.90
57664;DHT22;43493;53.098;6.064;2023-08-06T06:22:31;15.10;99.90
57664;DHT22;43493;53.098;6.064;2023-08-06T06:24:56;15.20;99.90
57664;DHT22;43493;53.098;6.064;2023-08-06T06:27:22;15.20;99.90
57664;DHT22;43493;53.098;6.064;2023-08-06T06:29:48;15.30;99.90
57664;DHT22;43493;53.098;6.064;2023-08-06T06:32:13;15.40;99.90
57664;DHT22;43493;53.098;6.064;2023-08-06T06:34:39;15.40;99.90
57664;DHT22;43493;53.098;6.064;2023-08-06T06:37:05;15.50;99.90
57664;DHT22;43493;53.098;6.064;2023-08-06T06:39:30;15.60;99.90
57664;DHT22;43493;53.098;6.064;2023-08-06T06:41:56;15.80;99.90
57664;DHT22;43493;53.098;6.064;2023-08-06T06:44:22;15.90;99.90
57664;DHT22;43493;53.098;6.064;2023-08-06T06:46:48;16.00;99.90
57664;DHT22;43493;53.098;6.064;2023-08-06T06:49:13;16.50;99.90
57664;DHT22;43493;53.098;6.064;2023-08-06T06:51:39;17.20;99.90
57664;DHT22;43493;53.098;6.064;2023-08-06T06:54:05;17.80;99.90
57664;DHT22;43493;53.098;6.064;2023-08-06T06:56:30;18.80;99.90
57664;DHT22;43493;53.098;6.064;2023-08-06T06:58:56;19.60;99.90
57664;DHT22;43493;53.098;6.064;2023-08-06T07:01:22;19.60;99.90
57664;DHT22;43493;53.098;6.064;2023-08-06T07:03:48;19.20;99.90
57664;DHT22;43493;53.098;6.064;2023-08-06T07:06:13;19.00;99.90
57664;DHT22;43493;53.098;6.064;2023-08-06T07:08:41;18.80;99.90
57664;DHT22;43493;53.098;6.064;2023-08-06T07:11:06;18.60;99.90
57664;DHT22;43493;53.098;6.064;2023-08-06T07:13:35;18.50;99.90
57664;DHT22;43493;53.098;6.064;2023-08-06T07:16:00;18.40;99.90
57664;DHT22;43493;53.098;6.064;2023-08-06T07:18:26;18.30;99.90
57664;DHT22;43493;53.098;6.064;2023-08-06T07:20:54;18.20;99.90
57664;DHT22;43493;53.098;6.064;2023-08-06T07:23:21;18.20;99.90
57664;DHT22;43493;53.098;6.064;2023-08-06T07:25:47;18.20;99.90
57664;DHT22;43493;53.098;6.064;2023-08-06T07:28:14;18.10;99.90
57664;DHT22;43493;53.098;6.064;2023-08-06T07:30:41;18.00;99.90
57664;DHT22;43493;53.098;6.064;2023-08-06T07:33:07;17.90;99.90
57664;DHT22;43493;53.098;6.064;2023-08-06T07:35:33;17.70;99.90
57664;DHT22;43493;53.098;6.064;2023-08-06T07:37:59;17.60;99.90
57664;DHT22;43493;53.098;6.064;2023-08-06T07:40:25;17.50;99.90
57664;DHT22;43493;53.098;6.064;2023-08-06T07:42:51;17.40;99.90
57664;DHT22;43493;53.098;6.064;2023-08-06T07:45:16;17.40;99.90
57664;DHT22;43493;53.098;6.064;2023-08-06T07:47:42;17.30;99.90
57664;DHT22;43493;53.098;6.064;2023-08-06T07:50:09;17.30;99.90
57664;DHT22;43493;53.098;6.064;2023-08-06T07:52:34;17.30;99.90
57664;DHT22;43493;53.098;6.064;2023-08-06T07:55:00;17.30;99.90
57664;DHT22;43493;53.098;6.064;2023-08-06T07:57:29;17.40;99.90
57664;DHT22;43493;53.098;6.064;2023-08-06T07:59:54;17.50;99.90
57664;DHT22;43493;53.098;6.064;2023-08-06T08:02:20;17.60;99.90
57664;DHT22;43493;53.098;6.064;2023-08-06T08:04:46;18.00;99.90
57664;DHT22;43493;53.098;6.064;2023-08-06T08:07:13;18.70;99.90
57664;DHT22;43493;53.098;6.064;2023-08-06T08:09:38;19.30;99.90
57664;DHT22;43493;53.098;6.064;2023-08-06T08:12:04;19.50;99.90
57664;DHT22;43493;53.098;6.064;2023-08-06T08:14:30;19.50;99.90
57664;DHT22;43493;53.098;6.064;2023-08-06T08:17:02;19.40;99.90
57664;DHT22;43493;53.098;6.064;2023-08-06T08:19:28;19.30;99.90
57664;DHT22;43493;53.098;6.064;2023-08-06T08:21:54;19.30;99.90
57664;DHT22;43493;53.098;6.064;2023-08-06T08:24:20;19.40;99.90
57664;DHT22;43493;53.098;6.064;2023-08-06T08:26:52;19.50;99.90
57664;DHT22;43493;53.098;6.064;2023-08-06T08:29:19;19.50;99.90
57664;DHT22;43493;53.098;6.064;2023-08-06T08:31:46;19.40;99.90
57664;DHT22;43493;53.098;6.064;2023-08-06T08:34:14;19.30;99.90
57664;DHT22;43493;53.098;6.064;2023-08-06T08:36:40;19.30;99.90
57664;DHT22;43493;53.098;6.064;2023-08-06T08:39:06;19.40;99.90
57664;DHT22;43493;53.098;6.064;2023-08-06T08:41:33;19.40;99.90
57664;DHT22;43493;53.098;6.064;2023-08-06T08:43:59;19.40;99.90
57664;DHT22;43493;53.098;6.064;2023-08-06T08:46:29;19.40;99.90
57664;DHT22;43493;53.098;6.064;2023-08-06T08:48:59;19.40;99.90
57664;DHT22;43493;53.098;6.064;2023-08-06T08:51:27;19.30;99.90
57664;DHT22;43493;53.098;6.064;2023-08-06T08:53:53;19.30;99.90
57664;DHT22;43493;53.098;6.064;2023-08-06T08:56:22;19.30;99.90
57664;DHT22;43493;53.098;6.064;2023-08-06T08:58:47;19.50;99.90
57664;DHT22;43493;53.098;6.064;2023-08-06T09:01:15;19.50;99.90
57664;DHT22;43493;53.098;6.064;2023-08-06T09:03:42;19.60;99.90
57664;DHT22;43493;53.098;6.064;2023-08-06T09:06:11;19.70;99.90
57664;DHT22;43493;53.098;6.064;2023-08-06T09:08:43;19.70;99.90
57664;DHT22;43493;53.098;6.064;2023-08-06T09:11:11;19.80;99.90
57664;DHT22;43493;53.098;6.064;2023-08-06T09:13:38;19.90;99.90
57664;DHT22;43493;53.098;6.064;2023-08-06T09:16:04;19.90;99.90
57664;DHT22;43493;53.098;6.064;2023-08-06T09:18:30;19.70;99.90
57664;DHT22;43493;53.098;6.064;2023-08-06T09:20:57;19.70;99.90
57664;DHT22;43493;53.098;6.064;2023-08-06T09:23:30;19.80;99.90
57664;DHT22;43493;53.098;6.064;2023-08-06T09:25:57;19.80;99.90
57664;DHT22;43493;53.098;6.064;2023-08-06T09:28:23;19.90;99.90
57664;DHT22;43493;53.098;6.064;2023-08-06T09:30:52;20.00;99.90
57664;DHT22;43493;53.098;6.064;2023-08-06T09:33:22;20.20;99.90
57664;DHT22;43493;53.098;6.064;2023-08-06T09:35:48;20.50;99.90
57664;DHT22;43493;53.098;6.064;2023-08-06T09:38:14;20.60;99.90
57664;DHT22;43493;53.098;6.064;2023-08-06T09:40:40;20.70;99.90
57664;DHT22;43493;53.098;6.064;2023-08-06T09:43:06;20.70;99.90
57664;DHT22;43493;53.098;6.064;2023-08-06T09:45:36;20.80;99.90
57664;DHT22;43493;53.098;6.064;2023-08-06T09:48:04;20.80;99.90
57664;DHT22;43493;53.098;6.064;2023-08-06T09:50:31;20.90;99.90
57664;DHT22;43493;53.098;6.064;2023-08-06T09:52:58;20.90;99.90
57664;DHT22;43493;53.098;6.064;2023-08-06T09:55:25;21.10;99.90
57664;DHT22;43493;53.098;6.064;2023-08-06T09:57:52;21.20;99.90
57664;DHT22;43493;53.098;6.064;2023-08-06T10:00:18;21.30;99.90
57664;DHT22;43493;53.098;6.064;2023-08-06T10:02:45;21.50;99.90
57664;DHT22;43493;53.098;6.064;2023-08-06T10:05:11;21.50;99.90
57664;DHT22;43493;53.098;6.064;2023-08-06T10:07:37;21.50;99.90
57664;DHT22;43493;53.098;6.064;2023-08-06T10:10:06;21.40;99.90
57664;DHT22;43493;53.098;6.064;2023-08-06T10:12:46;21.40;99.90
57664;DHT22;43493;53.098;6.064;2023-08-06T10:15:17;21.40;99.90
57664;DHT22;43493;53.098;6.064;2023-08-06T10:17:45;21.50;99.90
57664;DHT22;43493;53.098;6.064;2023-08-06T10:20:12;21.40;99.90
57664;DHT22;43493;53.098;6.064;2023-08-06T10:22:43;21.50;99.90
57664;DHT22;43493;53.098;6.064;2023-08-06T10:25:09;21.50;99.90
57664;DHT22;43493;53.098;6.064;2023-08-06T10:27:40;21.40;99.90
57664;DHT22;43493;53.098;6.064;2023-08-06T10:30:30;21.40;99.90
57664;DHT22;43493;53.098;6.064;2023-08-06T10:33:01;21.40;99.90
57664;DHT22;43493;53.098;6.064;2023-08-06T10:35:34;21.40;99.90
57664;DHT22;43493;53.098;6.064;2023-08-06T10:40:50;21.30;99.90
57664;DHT22;43493;53.098;6.064;2023-08-06T10:43:45;21.20;99.90
57664;DHT22;43493;53.098;6.064;2023-08-06T10:46:22;21.30;99.90
57664;DHT22;43493;53.098;6.064;2023-08-06T10:48:49;21.40;99.90
57664;DHT22;43493;53.098;6.064;2023-08-06T10:51:15;21.60;99.90
57664;DHT22;43493;53.098;6.064;2023-08-06T10:53:45;21.70;99.90
57664;DHT22;43493;53.098;6.064;2023-08-06T10:56:18;21.70;99.90
57664;DHT22;43493;53.098;6.064;2023-08-06T10:58:47;21.70;99.90
57664;DHT22;43493;53.098;6.064;2023-08-06T11:01:13;21.60;99.90
57664;DHT22;43493;53.098;6.064;2023-08-06T11:03:41;21.60;99.90
57664;DHT22;43493;53.098;6.064;2023-08-06T11:06:07;21.70;99.90
57664;DHT22;43493;53.098;6.064;2023-08-06T11:08:35;21.90;99.90
57664;DHT22;43493;53.098;6.064;2023-08-06T11:11:12;21.90;99.90
57664;DHT22;43493;53.098;6.064;2023-08-06T11:13:48;22.10;99.90
57664;DHT22;43493;53.098;6.064;2023-08-06T11:16:18;22.00;99.90
57664;DHT22;43493;53.098;6.064;2023-08-06T11:18:44;22.00;99.90
57664;DHT22;43493;53.098;6.064;2023-08-06T11:21:10;21.90;99.90
57664;DHT22;43493;53.098;6.064;2023-08-06T11:23:37;21.80;99.90
57664;DHT22;43493;53.098;6.064;2023-08-06T11:26:03;21.80;99.90
57664;DHT22;43493;53.098;6.064;2023-08-06T11:28:29;21.70;99.90
57664;DHT22;43493;53.098;6.064;2023-08-06T11:30:55;21.80;99.90
57664;DHT22;43493;53.098;6.064;2023-08-06T11:33:25;22.00;99.90
57664;DHT22;43493;53.098;6.064;2023-08-06T11:35:52;22.00;99.90
57664;DHT22;43493;53.098;6.064;2023-08-06T11:38:20;21.90;99.90
57664;DHT22;43493;53.098;6.064;2023-08-06T11:40:46;21.90;99.90
57664;DHT22;43493;53.098;6.064;2023-08-06T11:43:12;21.80;99.90
57664;DHT22;43493;53.098;6.064;2023-08-06T11:45:38;21.90;99.90
57664;DHT22;43493;53.098;6.064;2023-08-06T11:48:04;21.90;99.90
57664;DHT22;43493;53.098;6.064;2023-08-06T11:50:31;21.80;99.90
57664;DHT22;43493;53.098;6.064;2023-08-06T11:52:59;21.80;99.90
57664;DHT22;43493;53.098;6.064;2023-08-06T11:55:26;21.80;99.90
57664;DHT22;43493;53.098;6.064;2023-08-06T11:57:53;21.70;99.90
57664;DHT22;43493;53.098;6.064;2023-08-06T12:00:19;21.60;99.90
57664;DHT22;43493;53.098;6.064;2023-08-06T12:02:48;21.70;99.90
57664;DHT22;43493;53.098;6.064;2023-08-06T12:05:18;21.70;99.90
57664;DHT22;43493;53.098;6.064;2023-08-06T12:07:50;21.80;99.90
57664;DHT22;43493;53.098;6.064;2023-08-06T12:10:18;21.70;99.90
57664;DHT22;43493;53.098;6.064;2023-08-06T12:12:45;21.60;99.90
57664;DHT22;43493;53.098;6.064;2023-08-06T12:15:11;21.70;99.90
57664;DHT22;43493;53.098;6.064;2023-08-06T12:17:37;21.80;99.90
57664;DHT22;43493;53.098;6.064;2023-08-06T12:20:05;21.90;99.90
57664;DHT22;43493;53.098;6.064;2023-08-06T12:22:32;22.00;99.90
57664;DHT22;43493;53.098;6.064;2023-08-06T12:25:02;21.90;99.90
57664;DHT22;43493;53.098;6.064;2023-08-06T12:27:39;21.90;99.90
57664;DHT22;43493;53.098;6.064;2023-08-06T12:30:05;21.80;99.90
57664;DHT22;43493;53.098;6.064;2023-08-06T12:32:31;21.70;99.90
57664;DHT22;43493;53.098;6.064;2023-08-06T12:34:57;21.70;99.90
57664;DHT22;43493;53.098;6.064;2023-08-06T12:37:25;21.80;99.90
57664;DHT22;43493;53.098;6.064;2023-08-06T12:39:50;21.80;99.90
57664;DHT22;43493;53.098;6.064;2023-08-06T12:42:16;21.80;99.90
57664;DHT22;43493;53.098;6.064;2023-08-06T12:44:42;21.80;99.90
57664;DHT22;43493;53.098;6.064;2023-08-06T12:47:08;21.90;99.90
57664;DHT22;43493;53.098;6.064;2023-08-06T12:49:34;22.00;99.90
57664;DHT22;43493;53.098;6.064;2023-08-06T12:52:00;21.90;99.90
57664;DHT22;43493;53.098;6.064;2023-08-06T12:54:27;21.80;99.90
57664;DHT22;43493;53.098;6.064;2023-08-06T12:56:53;21.70;99.90
57664;DHT22;43493;53.098;6.064;2023-08-06T12:59:18;21.60;99.90
57664;DHT22;43493;53.098;6.064;2023-08-06T13:01:45;21.50;99.90
57664;DHT22;43493;53.098;6.064;2023-08-06T13:04:11;21.50;99.90
57664;DHT22;43493;53.098;6.064;2023-08-06T13:06:37;21.40;99.90
57664;DHT22;43493;53.098;6.064;2023-08-06T13:09:05;21.40;99.90
57664;DHT22;43493;53.098;6.064;2023-08-06T13:11:32;21.50;99.90
57664;DHT22;43493;53.098;6.064;2023-08-06T13:14:09;21.60;99.90
57664;DHT22;43493;53.098;6.064;2023-08-06T13:16:36;21.50;99.90
57664;DHT22;43493;53.098;6.064;2023-08-06T13:19:03;21.50;99.90
57664;DHT22;43493;53.098;6.064;2023-08-06T13:21:57;21.60;99.90
57664;DHT22;43493;53.098;6.064;2023-08-06T13:24:21;21.60;99.90
57664;DHT22;43493;53.098;6.064;2023-08-06T13:26:47;21.50;99.90
57664;DHT22;43493;53.098;6.064;2023-08-06T13:29:12;21.50;99.90
57664;DHT22;43493;53.098;6.064;2023-08-06T13:31:38;21.40;99.90
57664;DHT22;43493;53.098;6.064;2023-08-06T13:34:04;21.30;99.90
57664;DHT22;43493;53.098;6.064;2023-08-06T13:36:30;21.30;99.90
57664;DHT22;43493;53.098;6.064;2023-08-06T13:38:57;21.30;99.90
57664;DHT22;43493;53.098;6.064;2023-08-06T13:41:23;21.20;99.90
57664;DHT22;43493;53.098;6.064;2023-08-06T13:43:49;21.30;99.90
57664;DHT22;43493;53.098;6.064;2023-08-06T13:46:15;21.20;99.90
57664;DHT22;43493;53.098;6.064;2023-08-06T13:48:43;21.20;99.90
57664;DHT22;43493;53.098;6.064;2023-08-06T13:51:10;21.20;99.90
57664;DHT22;43493;53.098;6.064;2023-08-06T13:53:37;21.30;99.90
57664;DHT22;43493;53.098;6.064;2023-08-06T13:56:04;21.20;99.90
57664;DHT22;43493;53.098;6.064;2023-08-06T13:58:29;21.10;99.90
57664;DHT22;43493;53.098;6.064;2023-08-06T14:00:55;21.00;99.90
57664;DHT22;43493;53.098;6.064;2023-08-06T14:03:22;21.00;99.90
57664;DHT22;43493;53.098;6.064;2023-08-06T14:05:48;21.00;99.90
57664;DHT22;43493;53.098;6.064;2023-08-06T14:08:15;20.90;99.90
57664;DHT22;43493;53.098;6.064;2023-08-06T14:10:44;20.90;99.90
57664;DHT22;43493;53.098;6.064;2023-08-06T14:13:10;20.90;99.90
57664;DHT22;43493;53.098;6.064;2023-08-06T14:15:35;21.00;99.90
57664;DHT22;43493;53.098;6.064;2023-08-06T14:18:02;21.10;99.90
57664;DHT22;43493;53.098;6.064;2023-08-06T14:20:28;21.30;99.90
57664;DHT22;43493;53.098;6.064;2023-08-06T14:22:54;21.50;99.90
57664;DHT22;43493;53.098;6.064;2023-08-06T14:25:20;21.50;99.90
57664;DHT22;43493;53.098;6.064;2023-08-06T14:27:45;21.60;99.90
57664;DHT22;43493;53.098;6.064;2023-08-06T14:30:11;21.60;99.90
57664;DHT22;43493;53.098;6.064;2023-08-06T14:32:37;21.60;99.90
57664;DHT22;43493;53.098;6.064;2023-08-06T14:35:03;21.60;99.90
57664;DHT22;43493;53.098;6.064;2023-08-06T14:37:28;21.50;99.90
57664;DHT22;43493;53.098;6.064;2023-08-06T14:39:54;21.40;99.90
57664;DHT22;43493;53.098;6.064;2023-08-06T14:42:20;21.20;99.90
57664;DHT22;43493;53.098;6.064;2023-08-06T14:44:46;21.10;99.90
57664;DHT22;43493;53.098;6.064;2023-08-06T14:47:12;21.00;99.90
57664;DHT22;43493;53.098;6.064;2023-08-06T14:49:38;20.90;99.90
57664;DHT22;43493;53.098;6.064;2023-08-06T14:52:04;20.80;99.90
57664;DHT22;43493;53.098;6.064;2023-08-06T14:54:30;20.70;99.90
57664;DHT22;43493;53.098;6.064;2023-08-06T14:56:56;20.70;99.90
57664;DHT22;43493;53.098;6.064;2023-08-06T14:59:22;20.70;99.90
57664;DHT22;43493;53.098;6.064;2023-08-06T15:01:48;20.70;99.90
57664;DHT22;43493;53.098;6.064;2023-08-06T15:04:14;20.70;99.90
57664;DHT22;43493;53.098;6.064;2023-08-06T15:06:40;20.70;99.90
57664;DHT22;43493;53.098;6.064;2023-08-06T15:09:06;20.70;99.90
57664;DHT22;43493;53.098;6.064;2023-08-06T15:11:32;20.70;99.90
57664;DHT22;43493;53.098;6.064;2023-08-06T15:13:58;20.80;99.90
57664;DHT22;43493;53.098;6.064;2023-08-06T15:16:26;20.70;99.90
57664;DHT22;43493;53.098;6.064;2023-08-06T15:18:52;20.70;99.90
57664;DHT22;43493;53.098;6.064;2023-08-06T15:21:18;20.70;99.90
57664;DHT22;43493;53.098;6.064;2023-08-06T15:23:43;20.70;99.90
57664;DHT22;43493;53.098;6.064;2023-08-06T15:26:09;20.70;99.90
57664;DHT22;43493;53.098;6.064;2023-08-06T15:28:35;20.70;99.90
57664;DHT22;43493;53.098;6.064;2023-08-06T15:31:01;20.70;99.90
57664;DHT22;43493;53.098;6.064;2023-08-06T15:33:29;20.60;99.90